CheckWX is a tool to help pilots better visualize weather data.  It is not intended as a substitute for an official pre-flight weather briefing.

17:50:47 UTC

ESNN METAR
Sundsvall-Härnösand Airport
Sundsvall/ Härnösand, Sweden
Current

31 mins ago

ESNN 181720Z 16007KT CAVOK 16/11 Q1013
Observed
Jul-18 @ 17:20 UTC
Wind
  • 160° at 7 KTS
Visibility
10,000+ meters
Flight Rules
VFR
Cloud Levels
  • Clear skies
Temperature
16°C / 61°F
Dewpoint
11°C / 52°F
Humidity
72%
Altimeter
29.91" Hg
Pressure
1012.92 hPa
Previous

1 hour ago

ESNN 181650Z 17008KT CAVOK 16/12 Q1013
Observed
Jul-18 @ 16:50 UTC
Wind
  • 170° at 8 KTS
Visibility
10,000+ meters
Flight Rules
VFR
Cloud Levels
  • Clear skies
Temperature
16°C / 61°F
Dewpoint
12°C / 54°F
Humidity
77%
Altimeter
29.91" Hg
Pressure
1012.92 hPa
Previous

2 hours ago

ESNN 181620Z 16008KT CAVOK 16/11 Q1013
Observed
Jul-18 @ 16:20 UTC
Wind
  • 160° at 8 KTS
Visibility
10,000+ meters
Flight Rules
VFR
Cloud Levels
  • Clear skies
Temperature
16°C / 61°F
Dewpoint
11°C / 52°F
Humidity
72%
Altimeter
29.91" Hg
Pressure
1012.92 hPa